createdAt,value
2022-10-20T00:01:20.477Z,3.07
2022-10-20T00:03:48.110Z,2.97
2022-10-20T00:06:27.098Z,2.97
2022-10-20T00:08:56.346Z,3.25
2022-10-20T00:11:26.772Z,3.35
2022-10-20T00:13:56.670Z,3.20
2022-10-20T00:16:26.062Z,3.53
2022-10-20T00:18:53.340Z,2.92
2022-10-20T00:21:24.069Z,2.90
2022-10-20T00:23:51.706Z,3.00
2022-10-20T00:26:26.826Z,2.50
2022-10-20T00:28:55.129Z,3.42
2022-10-20T00:31:25.678Z,2.92
2022-10-20T00:33:53.236Z,2.55
2022-10-20T00:36:22.388Z,2.33
2022-10-20T00:38:50.136Z,2.50
2022-10-20T00:41:19.151Z,2.40
2022-10-20T00:43:55.153Z,2.40
2022-10-20T00:46:25.304Z,2.50
2022-10-20T00:48:56.711Z,2.47
2022-10-20T00:51:27.998Z,2.47
2022-10-20T00:58:28.915Z,2.60
2022-10-20T01:00:59.567Z,2.78
2022-10-20T01:03:35.750Z,2.60
2022-10-20T01:06:03.875Z,2.47
2022-10-20T01:08:31.086Z,2.80
2022-10-20T01:11:25.058Z,2.70
2022-10-20T01:13:57.997Z,2.60
2022-10-20T01:16:59.298Z,2.55
2022-10-20T01:19:44.855Z,2.83
2022-10-20T01:22:26.965Z,2.53
2022-10-20T01:25:31.474Z,2.40
2022-10-20T01:28:11.849Z,2.40
2022-10-20T01:30:48.071Z,3.33
2022-10-20T01:36:04.823Z,3.20
2022-10-20T01:38:50.655Z,2.85
2022-10-20T01:41:33.005Z,2.78
2022-10-20T01:44:02.753Z,3.13
2022-10-20T01:46:30.608Z,2.57
2022-10-20T01:49:02.380Z,3.00
2022-10-20T01:51:29.470Z,2.90
2022-10-20T01:53:58.630Z,2.85
2022-10-20T01:56:48.182Z,2.92
2022-10-20T01:59:15.384Z,2.80
2022-10-20T02:02:22.523Z,2.95
2022-10-20T02:05:04.442Z,2.90
2022-10-20T02:07:33.809Z,2.75
2022-10-20T02:10:05.177Z,2.40
2022-10-20T02:12:38.048Z,2.57
2022-10-20T02:15:27.867Z,2.58
2022-10-20T02:18:01.403Z,2.60
2022-10-20T02:20:31.417Z,2.90
2022-10-20T02:23:00.152Z,2.88
2022-10-20T02:25:29.857Z,2.60
2022-10-20T02:28:01.075Z,2.03
2022-10-20T02:30:29.930Z,2.50
2022-10-20T02:33:26.369Z,2.47
2022-10-20T02:35:58.871Z,2.10
2022-10-20T02:38:28.407Z,2.30
2022-10-20T02:40:55.659Z,2.25
2022-10-20T02:43:22.879Z,2.50
2022-10-20T02:45:49.823Z,2.17
2022-10-20T02:48:16.900Z,1.80
2022-10-20T02:50:43.941Z,2.40
2022-10-20T02:53:11.045Z,2.03
2022-10-20T02:55:37.959Z,2.00
2022-10-20T02:58:04.980Z,2.05
2022-10-20T03:00:32.110Z,2.40
2022-10-20T03:02:59.485Z,1.90
2022-10-20T03:05:27.383Z,2.38
2022-10-20T03:07:54.440Z,1.95
2022-10-20T03:10:22.255Z,2.08
2022-10-20T03:12:49.447Z,2.70
2022-10-20T03:15:16.842Z,2.40
2022-10-20T03:17:43.867Z,3.45
2022-10-20T03:20:11.257Z,3.30
2022-10-20T03:22:38.364Z,3.42
2022-10-20T03:25:05.808Z,3.33
2022-10-20T03:27:32.935Z,3.47
2022-10-20T03:30:00.042Z,3.83
2022-10-20T03:32:29.299Z,3.97
2022-10-20T03:34:56.387Z,3.90
2022-10-20T03:37:23.477Z,4.57
2022-10-20T03:39:50.538Z,4.70
2022-10-20T03:42:17.682Z,5.25
2022-10-20T03:44:45.289Z,4.90
2022-10-20T03:47:13.714Z,5.50
2022-10-20T03:49:41.259Z,5.68
2022-10-20T03:52:08.350Z,5.77
2022-10-20T03:54:36.993Z,6.40
2022-10-20T03:57:06.976Z,6.40
2022-10-20T03:59:35.236Z,6.40
2022-10-20T04:02:02.558Z,6.65
2022-10-20T04:04:29.617Z,6.10
2022-10-20T04:06:57.574Z,6.80
2022-10-20T04:09:27.055Z,6.93
2022-10-20T04:11:57.361Z,6.53
2022-10-20T04:14:25.477Z,7.00
2022-10-20T04:16:52.603Z,6.70
2022-10-20T04:19:20.071Z,4.88
2022-10-20T04:21:47.161Z,5.38
2022-10-20T04:24:14.321Z,5.20
2022-10-20T04:26:41.401Z,4.80
2022-10-20T04:29:08.392Z,5.30
2022-10-20T04:31:35.336Z,6.00
2022-10-20T04:34:02.269Z,5.82
2022-10-20T04:36:29.155Z,5.80
2022-10-20T04:38:56.280Z,6.03
2022-10-20T04:41:23.444Z,6.30
2022-10-20T04:43:52.270Z,6.88
2022-10-20T04:46:20.075Z,6.13
2022-10-20T04:48:47.149Z,6.97
2022-10-20T04:51:16.445Z,6.95
2022-10-20T04:53:46.572Z,7.17
2022-10-20T04:56:18.565Z,6.28
2022-10-20T04:58:54.057Z,7.07
2022-10-20T05:01:25.964Z,6.97
2022-10-20T05:03:53.253Z,7.30
2022-10-20T05:06:23.928Z,7.00
2022-10-20T05:08:53.322Z,8.02
2022-10-20T05:11:23.845Z,7.70
2022-10-20T05:13:51.163Z,7.85
2022-10-20T05:16:18.521Z,7.55
2022-10-20T05:18:46.156Z,7.23
2022-10-20T05:21:17.642Z,6.93
2022-10-20T05:23:45.843Z,7.10
2022-10-20T05:26:15.517Z,6.93
2022-10-20T05:28:47.712Z,6.93
2022-10-20T05:31:16.376Z,6.60
2022-10-20T05:33:49.498Z,6.90
2022-10-20T05:36:21.789Z,7.03
2022-10-20T05:38:50.278Z,7.10
2022-10-20T05:41:20.247Z,7.03
2022-10-20T05:43:51.545Z,6.90
2022-10-20T05:46:19.524Z,7.13
2022-10-20T05:48:47.385Z,7.13
2022-10-20T05:51:17.002Z,7.22
2022-10-20T05:53:47.134Z,7.85
2022-10-20T05:56:17.063Z,7.57
2022-10-20T05:58:44.703Z,7.10
2022-10-20T06:01:19.212Z,6.93
2022-10-20T06:03:50.748Z,6.93
2022-10-20T06:06:19.162Z,6.60
2022-10-20T06:08:46.444Z,6.07
2022-10-20T06:11:15.581Z,5.88
2022-10-20T06:13:45.042Z,6.50
2022-10-20T06:16:16.751Z,6.75
2022-10-20T06:18:44.162Z,6.65
2022-10-20T06:21:22.974Z,6.80
2022-10-20T06:23:50.836Z,7.03
2022-10-20T06:26:20.795Z,6.15
2022-10-20T06:28:51.318Z,5.97
2022-10-20T06:31:24.111Z,6.15
2022-10-20T06:33:51.711Z,6.17
2022-10-20T06:36:20.077Z,6.03
2022-10-20T06:38:48.170Z,5.45
2022-10-20T06:41:17.768Z,5.68
2022-10-20T06:43:45.711Z,5.03
2022-10-20T06:46:15.558Z,4.63
2022-10-20T06:48:42.712Z,4.30
2022-10-20T06:51:15.545Z,4.93
2022-10-20T06:53:46.584Z,4.03
2022-10-20T06:56:16.856Z,4.22
2022-10-20T06:58:47.624Z,3.80
2022-10-20T07:01:20.768Z,4.32
2022-10-20T07:03:48.889Z,4.32
2022-10-20T07:06:28.686Z,4.03
2022-10-20T07:08:56.670Z,4.25
2022-10-20T07:11:30.576Z,3.97
2022-10-20T07:14:00.129Z,4.15
2022-10-20T07:16:30.194Z,4.45
2022-10-20T07:19:00.495Z,4.40
2022-10-20T07:21:32.417Z,4.40
2022-10-20T07:24:05.029Z,4.32
2022-10-20T07:26:34.824Z,5.00
2022-10-20T07:29:05.104Z,6.30
2022-10-20T07:31:41.830Z,5.65
2022-10-20T07:35:25.490Z,5.72
2022-10-20T07:37:52.531Z,3.40
2022-10-20T07:40:19.599Z,6.72
2022-10-20T07:42:46.600Z,6.18
2022-10-20T07:45:13.860Z,5.07
2022-10-20T07:47:43.139Z,6.03
2022-10-20T07:50:13.522Z,5.38
2022-10-20T07:52:40.540Z,5.67
2022-10-20T07:55:17.938Z,4.57
2022-10-20T07:57:55.306Z,3.80
2022-10-20T08:00:22.415Z,3.50
2022-10-20T08:02:49.440Z,2.90
2022-10-20T08:05:16.511Z,2.60
2022-10-20T08:07:43.657Z,2.63
2022-10-20T08:10:11.137Z,2.65
2022-10-20T08:12:39.043Z,3.00
2022-10-20T08:15:13.922Z,3.13
2022-10-20T08:17:40.984Z,5.13
2022-10-20T08:20:21.301Z,4.32
2022-10-20T08:22:50.692Z,3.53
2022-10-20T08:25:17.990Z,3.50
2022-10-20T08:27:45.019Z,3.40
2022-10-20T08:30:23.339Z,3.88
2022-10-20T08:32:53.037Z,3.50
2022-10-20T08:35:22.177Z,3.00
2022-10-20T08:37:49.839Z,3.33
2022-10-20T08:40:23.139Z,3.55
2022-10-20T08:42:51.151Z,3.45
2022-10-20T08:45:24.037Z,3.55
2022-10-20T08:47:54.384Z,3.75
2022-10-20T08:50:22.808Z,3.90
2022-10-20T08:52:55.917Z,4.57
2022-10-20T08:55:28.825Z,4.65
2022-10-20T08:58:05.382Z,4.10
2022-10-20T09:00:36.068Z,3.13
2022-10-20T09:03:13.577Z,2.85
2022-10-20T09:05:43.267Z,2.63
2022-10-20T09:08:10.331Z,2.40
2022-10-20T09:10:40.387Z,2.75
2022-10-20T09:13:26.703Z,2.80
2022-10-20T09:16:00.442Z,2.95
2022-10-20T09:18:27.652Z,2.65
2022-10-20T09:21:08.587Z,2.50
2022-10-20T09:23:42.260Z,2.47
2022-10-20T09:26:37.459Z,2.83
2022-10-20T09:29:14.398Z,2.55
2022-10-20T09:31:50.532Z,3.08
2022-10-20T09:34:31.962Z,2.42
2022-10-20T09:37:08.130Z,2.58
2022-10-20T09:39:43.237Z,2.80
2022-10-20T09:42:23.550Z,2.60
2022-10-20T09:44:56.970Z,2.63
2022-10-20T09:47:26.948Z,2.97
2022-10-20T09:50:01.456Z,2.45
2022-10-20T09:52:35.726Z,2.35
2022-10-20T09:55:20.967Z,3.08
2022-10-20T09:57:48.777Z,2.87
2022-10-20T10:00:38.945Z,3.22
2022-10-20T10:03:14.903Z,3.10
2022-10-20T10:05:41.810Z,3.25
2022-10-20T10:08:15.369Z,3.70
2022-10-20T10:10:44.733Z,3.20
2022-10-20T10:13:40.848Z,3.22
2022-10-20T10:16:20.151Z,4.03
2022-10-20T10:19:02.906Z,2.80
2022-10-20T10:21:43.062Z,2.50
2022-10-20T10:24:31.372Z,2.80
2022-10-20T10:26:59.237Z,2.60
2022-10-20T10:29:27.547Z,2.80
2022-10-20T10:32:02.345Z,2.63
2022-10-20T10:34:52.100Z,2.90
2022-10-20T10:39:56.719Z,2.70
2022-10-20T10:43:10.115Z,2.75
2022-10-20T10:45:46.746Z,3.05
2022-10-20T10:48:46.392Z,3.08
2022-10-20T10:51:30.694Z,3.17
2022-10-20T10:54:26.994Z,2.50
2022-10-20T10:56:53.932Z,2.45
2022-10-20T10:59:35.190Z,2.80
2022-10-20T11:02:17.632Z,2.50
2022-10-20T11:05:18.754Z,2.63
2022-10-20T11:08:13.611Z,2.90
2022-10-20T11:11:01.381Z,3.58
2022-10-20T11:13:45.500Z,2.70
2022-10-20T11:16:30.741Z,2.92
2022-10-20T11:19:30.819Z,2.40
2022-10-20T11:22:15.244Z,2.45
2022-10-20T11:24:52.982Z,3.17
2022-10-20T11:27:27.998Z,2.60
2022-10-20T11:30:20.266Z,2.33
2022-10-20T11:33:13.244Z,2.43
2022-10-20T11:35:51.591Z,2.38
2022-10-20T11:38:37.039Z,2.30
2022-10-20T11:41:21.311Z,2.42
2022-10-20T11:44:15.196Z,2.67
2022-10-20T11:47:16.747Z,2.50
2022-10-20T11:52:50.955Z,2.80
2022-10-20T11:55:31.649Z,2.80
2022-10-20T11:58:35.152Z,4.32
2022-10-20T12:01:08.444Z,3.90
2022-10-20T12:03:49.841Z,3.30
2022-10-20T12:06:35.385Z,2.70
2022-10-20T12:09:11.557Z,2.60
2022-10-20T12:12:05.526Z,2.70
2022-10-20T12:14:38.423Z,2.00
2022-10-20T12:17:13.774Z,2.00
2022-10-20T12:19:41.378Z,2.22
2022-10-20T12:22:14.503Z,1.90
2022-10-20T12:24:44.388Z,2.05
2022-10-20T12:27:11.592Z,2.30
2022-10-20T12:29:51.413Z,2.30
2022-10-20T12:32:27.684Z,2.45
2022-10-20T12:34:54.598Z,2.00
2022-10-20T12:37:24.539Z,2.88
2022-10-20T12:39:56.778Z,2.40
2022-10-20T12:42:28.865Z,2.67
2022-10-20T12:45:03.380Z,2.70
2022-10-20T12:47:35.429Z,2.53
2022-10-20T12:50:03.786Z,2.25
2022-10-20T12:52:33.872Z,2.27
2022-10-20T12:55:27.228Z,2.60
2022-10-20T12:58:13.581Z,2.50
2022-10-20T13:00:48.700Z,2.30
2022-10-20T13:03:34.449Z,2.40
2022-10-20T13:06:02.711Z,1.87
2022-10-20T13:09:09.663Z,2.40
2022-10-20T13:11:39.556Z,2.13
2022-10-20T13:14:12.676Z,2.40
2022-10-20T13:17:01.762Z,2.33
2022-10-20T13:20:04.376Z,2.57
2022-10-20T13:22:38.109Z,2.03
2022-10-20T13:25:36.982Z,2.20
2022-10-20T13:28:13.483Z,3.00
2022-10-20T13:31:06.776Z,2.42
2022-10-20T13:34:02.764Z,2.60
2022-10-20T13:36:38.300Z,3.35
2022-10-20T13:39:36.340Z,3.00
2022-10-20T13:42:09.330Z,2.58
2022-10-20T13:45:27.235Z,2.90
2022-10-20T13:48:23.978Z,2.80
2022-10-20T13:51:04.492Z,2.80
2022-10-20T13:53:37.297Z,2.08
2022-10-20T13:56:15.020Z,2.22
2022-10-20T13:59:06.288Z,1.92
2022-10-20T14:02:39.559Z,2.00
2022-10-20T14:05:14.372Z,2.33
2022-10-20T14:07:43.110Z,2.50
2022-10-20T14:10:26.637Z,2.03
2022-10-20T14:12:57.648Z,2.15
2022-10-20T14:15:36.240Z,2.10
2022-10-20T14:18:21.603Z,2.00
2022-10-20T14:21:04.225Z,2.63
2022-10-20T14:23:37.265Z,2.65
2022-10-20T14:26:07.924Z,2.60
2022-10-20T14:28:36.329Z,2.43
2022-10-20T14:33:50.271Z,2.40
2022-10-20T14:39:36.710Z,2.45
2022-10-20T14:42:17.602Z,3.23
2022-10-20T14:44:45.103Z,4.10
2022-10-20T14:50:00.057Z,3.25
2022-10-20T14:52:32.027Z,2.88
2022-10-20T14:54:59.122Z,2.53
2022-10-20T15:00:27.094Z,2.50
2022-10-20T15:02:57.493Z,2.50
2022-10-20T15:09:48.724Z,2.50
2022-10-20T15:12:32.755Z,2.70
2022-10-20T15:15:19.018Z,2.65
2022-10-20T15:17:51.305Z,2.70
2022-10-20T15:20:35.144Z,3.10
2022-10-20T15:23:14.803Z,3.30
2022-10-20T15:26:06.337Z,3.17
2022-10-20T15:28:40.587Z,2.80
2022-10-20T15:31:23.464Z,2.85
2022-10-20T15:36:42.408Z,3.10
2022-10-20T15:41:54.194Z,3.47
2022-10-20T15:44:23.079Z,3.25
2022-10-20T15:46:56.611Z,3.38
2022-10-20T15:49:24.028Z,3.00
2022-10-20T15:51:51.979Z,3.38
2022-10-20T15:57:07.857Z,3.10
2022-10-20T16:02:28.446Z,3.30
2022-10-20T16:04:55.413Z,3.15
2022-10-20T16:10:13.907Z,4.00
2022-10-20T16:12:41.577Z,3.47
2022-10-20T16:15:09.983Z,4.10
2022-10-20T16:17:38.978Z,3.95
2022-10-20T16:20:07.670Z,3.70
2022-10-20T16:22:36.144Z,3.47
2022-10-20T16:25:04.337Z,3.50
2022-10-20T16:27:32.586Z,3.93
2022-10-20T16:30:01.642Z,4.00
2022-10-20T16:32:32.983Z,3.28
2022-10-20T16:35:04.521Z,3.90
2022-10-20T16:37:40.772Z,4.90
2022-10-20T16:42:54.409Z,3.50
2022-10-20T16:47:54.527Z,3.45
2022-10-20T16:50:21.534Z,3.53
2022-10-20T16:52:48.554Z,3.67
2022-10-20T16:55:15.730Z,4.20
2022-10-20T16:57:42.733Z,4.10
2022-10-20T17:00:10.595Z,4.18
2022-10-20T17:02:37.835Z,4.20
2022-10-20T17:05:08.328Z,4.00
2022-10-20T17:07:37.493Z,4.10
2022-10-20T17:10:05.453Z,4.07
2022-10-20T17:15:19.314Z,4.35
2022-10-20T17:17:46.467Z,4.30
2022-10-20T17:20:15.787Z,4.75
2022-10-20T17:22:42.883Z,4.30
2022-10-20T17:27:54.451Z,4.28
2022-10-20T17:30:32.032Z,4.30
2022-10-20T17:33:02.066Z,4.13
2022-10-20T17:35:32.693Z,4.30
2022-10-20T17:38:03.679Z,5.00
2022-10-20T17:40:38.369Z,4.75
2022-10-20T17:43:05.498Z,3.80
2022-10-20T17:45:39.564Z,4.22
2022-10-20T17:48:10.445Z,4.05
2022-10-20T17:50:40.654Z,4.13
2022-10-20T17:55:54.034Z,4.30
2022-10-20T18:01:16.607Z,4.10
2022-10-20T18:07:35.827Z,4.07
2022-10-20T18:10:07.021Z,4.30
2022-10-20T18:12:37.085Z,4.40
2022-10-20T18:15:14.444Z,4.57
2022-10-20T18:17:41.898Z,4.55
2022-10-20T18:20:09.742Z,4.90
2022-10-20T18:22:37.441Z,5.03
2022-10-20T18:25:37.992Z,4.90
2022-10-20T18:28:03.497Z,4.82
2022-10-20T18:30:30.674Z,5.32
2022-10-20T18:32:57.835Z,7.00
2022-10-20T18:35:25.562Z,5.43
2022-10-20T18:43:27.196Z,7.55
2022-10-20T18:46:25.394Z,5.88
2022-10-20T18:48:52.616Z,5.20
2022-10-20T18:51:19.812Z,4.65
2022-10-20T18:53:50.134Z,5.18
2022-10-20T18:56:22.915Z,4.32
2022-10-20T18:59:11.901Z,4.95
2022-10-20T19:01:40.234Z,5.20
2022-10-20T19:04:10.117Z,4.93
2022-10-20T19:06:43.504Z,7.03
2022-10-20T19:09:20.678Z,4.70
2022-10-20T19:11:51.622Z,4.65
2022-10-20T19:14:25.386Z,4.67
2022-10-20T19:19:38.718Z,4.45
2022-10-20T19:22:05.882Z,4.95
2022-10-20T19:24:33.224Z,4.85
2022-10-20T19:27:25.100Z,5.23
2022-10-20T19:29:50.384Z,4.68
2022-10-20T19:32:18.073Z,4.72
2022-10-20T19:34:47.041Z,5.70
2022-10-20T19:37:14.261Z,5.53
2022-10-20T19:39:44.264Z,4.87
2022-10-20T19:42:12.216Z,5.65
2022-10-20T19:44:40.182Z,5.28
2022-10-20T19:47:08.207Z,4.45
2022-10-20T19:49:37.798Z,4.60
2022-10-20T19:52:05.652Z,4.80
2022-10-20T19:54:32.903Z,4.55
2022-10-20T19:57:01.282Z,4.20
2022-10-20T19:59:30.534Z,4.97
2022-10-20T20:01:57.723Z,4.63
2022-10-20T20:04:25.070Z,3.73
2022-10-20T20:06:58.379Z,4.70
2022-10-20T20:09:30.085Z,4.82
2022-10-20T20:11:58.426Z,4.32
2022-10-20T20:14:25.483Z,4.90
2022-10-20T20:16:52.483Z,4.70
2022-10-20T20:19:19.374Z,4.72
2022-10-20T20:21:48.950Z,3.90
2022-10-20T20:24:16.202Z,3.78
2022-10-20T20:29:29.582Z,3.70
2022-10-20T20:31:59.267Z,3.75
2022-10-20T20:34:26.641Z,3.20
2022-10-20T20:36:54.291Z,3.58
2022-10-20T20:39:24.412Z,3.30
2022-10-20T20:41:51.431Z,3.30
2022-10-20T20:44:21.155Z,3.33
2022-10-20T20:46:48.050Z,3.65
2022-10-20T20:49:14.978Z,3.47
2022-10-20T20:51:44.086Z,3.42
2022-10-20T20:56:55.814Z,3.70
2022-10-20T20:59:22.904Z,3.42
2022-10-20T21:01:49.903Z,3.78
2022-10-20T21:04:17.666Z,3.67
2022-10-20T21:07:03.278Z,3.80
2022-10-20T21:09:30.795Z,3.80
2022-10-20T21:11:57.752Z,3.95
2022-10-20T21:14:24.739Z,3.97
2022-10-20T21:16:51.777Z,4.20
2022-10-20T21:19:19.002Z,4.47
2022-10-20T21:21:57.295Z,4.65
2022-10-20T21:24:26.202Z,3.92
2022-10-20T21:26:54.026Z,4.70
2022-10-20T21:29:21.112Z,4.50
2022-10-20T21:31:48.185Z,4.50
2022-10-20T21:34:15.296Z,4.97
2022-10-20T21:36:42.872Z,4.50
2022-10-20T21:39:18.024Z,4.63
2022-10-20T21:41:46.149Z,4.90
2022-10-20T21:44:14.749Z,4.70
2022-10-20T21:46:45.647Z,4.55
2022-10-20T21:49:15.701Z,3.70
2022-10-20T21:51:54.753Z,2.80
2022-10-20T21:54:24.266Z,3.65
2022-10-20T21:56:52.519Z,3.03
2022-10-20T21:59:21.188Z,3.35
2022-10-20T22:01:48.950Z,2.70
2022-10-20T22:04:17.019Z,3.63
2022-10-20T22:06:44.441Z,3.00
2022-10-20T22:09:13.237Z,3.10
2022-10-20T22:11:44.233Z,3.00
2022-10-20T22:14:11.702Z,3.22
2022-10-20T22:16:41.474Z,3.03
2022-10-20T22:19:15.959Z,3.13
2022-10-20T22:21:45.473Z,2.80
2022-10-20T22:24:13.121Z,2.45
2022-10-20T22:29:25.094Z,2.70
2022-10-20T22:34:36.589Z,2.50
2022-10-20T22:39:49.124Z,3.00
2022-10-20T22:42:16.715Z,2.80
2022-10-20T22:44:44.266Z,3.15
2022-10-20T22:47:11.436Z,2.60
2022-10-20T22:49:38.466Z,3.05
2022-10-20T22:52:05.513Z,3.30
2022-10-20T22:54:32.467Z,3.22
2022-10-20T22:56:59.610Z,2.95
2022-10-20T23:02:11.820Z,3.15
2022-10-20T23:07:23.670Z,2.85
2022-10-20T23:12:36.981Z,3.00
2022-10-20T23:15:05.724Z,2.95
2022-10-20T23:17:33.316Z,3.35
2022-10-20T23:20:00.204Z,3.25
2022-10-20T23:22:27.120Z,3.08
2022-10-20T23:24:54.043Z,3.30
2022-10-20T23:27:23.203Z,3.33
2022-10-20T23:35:22.270Z,3.33
2022-10-20T23:37:49.231Z,4.30
2022-10-20T23:45:45.161Z,3.63
2022-10-20T23:53:41.243Z,3.47
